createdAt,value
2022-12-03T08:14:25.536Z,102615.56
2022-12-03T08:19:22.683Z,102611.22
2022-12-03T08:24:20.893Z,102608.53
2022-12-03T09:01:36.869Z,102560.44
2022-12-03T09:06:36.739Z,102574.38
2022-12-03T09:11:33.246Z,102583.03
2022-12-03T09:59:23.107Z,102558.13
2022-12-03T10:09:34.795Z,102532.84
2022-12-03T12:49:51.733Z,102361.78
2022-12-03T14:37:46.367Z,102345.19
2022-12-03T14:42:43.009Z,102353.97
2022-12-03T14:47:39.589Z,102347.09
2022-12-03T14:52:36.578Z,102341.88
2022-12-03T14:57:32.983Z,102334.00
2022-12-03T15:02:30.381Z,102331.41
2022-12-03T15:07:27.164Z,102330.53
2022-12-03T15:12:24.073Z,102330.50
2022-12-03T15:17:29.565Z,102327.88
2022-12-03T15:22:28.057Z,102334.81
2022-12-03T15:27:26.356Z,102320.06
2022-12-03T15:32:26.289Z,102323.53
2022-12-03T15:37:27.703Z,102313.09
2022-12-03T15:42:28.107Z,102324.44
2022-12-03T15:47:26.172Z,102322.56
2022-12-03T15:52:23.381Z,102320.00
2022-12-03T15:57:20.787Z,102317.41
2022-12-03T16:02:22.534Z,102318.38
2022-12-03T16:07:19.747Z,102305.38
2022-12-03T16:12:17.808Z,102321.25
2022-12-03T16:17:14.388Z,102318.66
2022-12-03T16:22:12.231Z,102306.47
2022-12-03T16:32:35.321Z,102307.41
2022-12-03T16:37:31.845Z,102311.72
2022-12-03T16:42:28.407Z,102320.53
2022-12-03T16:47:30.750Z,102309.16
2022-12-03T16:52:34.644Z,102303.94
2022-12-03T16:57:47.220Z,102301.31
2022-12-03T17:02:46.986Z,102291.84
2022-12-03T17:07:50.119Z,102314.44
2022-12-03T17:13:08.872Z,102312.75
2022-12-03T17:18:08.218Z,102286.56
2022-12-03T17:23:15.554Z,102301.22
2022-12-03T17:28:15.749Z,102301.22
2022-12-03T17:33:12.881Z,102286.31
2022-12-03T17:38:10.051Z,102292.38
2022-12-03T17:43:10.323Z,102278.44
2022-12-03T17:48:12.672Z,102273.16
2022-12-03T17:53:11.535Z,102291.38
2022-12-03T17:58:09.105Z,102293.16
2022-12-03T18:03:05.757Z,102294.88
2022-12-03T18:08:02.412Z,102284.38
2022-12-03T18:13:14.074Z,102291.31
2022-12-03T18:18:11.212Z,102295.69
2022-12-03T18:23:08.861Z,102292.19
2022-12-03T18:28:05.366Z,102292.13
2022-12-03T18:33:01.929Z,102298.31
2022-12-03T18:37:58.522Z,102297.47
2022-12-03T18:42:56.080Z,102305.38
2022-12-03T18:47:52.717Z,102300.16
2022-12-03T18:52:49.333Z,102293.19
2022-12-03T18:58:04.136Z,102298.47
2022-12-03T19:03:04.245Z,102298.53
2022-12-03T19:08:01.763Z,102298.53
2022-12-03T19:12:58.453Z,102290.66
2022-12-03T19:17:55.077Z,102301.19
2022-12-03T19:22:51.786Z,102293.31
2022-12-03T19:27:50.861Z,102294.25
2022-12-03T19:32:51.520Z,102302.16
2022-12-03T19:37:49.076Z,102293.41
2022-12-03T19:42:45.607Z,102306.56
2022-12-03T19:47:42.548Z,102302.25
2022-12-03T19:52:39.062Z,102311.84
2022-12-03T19:57:35.579Z,102318.88
2022-12-03T20:02:34.312Z,102315.41
2022-12-03T20:07:31.046Z,102314.56
2022-12-03T20:12:27.622Z,102318.97
2022-12-03T20:17:24.295Z,102312.88
2022-12-03T20:22:20.905Z,102313.81
2022-12-03T20:27:22.662Z,102324.41
2022-12-03T20:32:19.766Z,102327.88
2022-12-03T20:37:19.358Z,102323.53
2022-12-03T20:42:15.922Z,102323.53
2022-12-03T20:47:12.539Z,102324.41
2022-12-03T20:52:09.112Z,102320.03
2022-12-03T20:57:05.636Z,102323.56
2022-12-03T21:02:02.334Z,102315.69
2022-12-03T21:06:59.056Z,102317.47
2022-12-03T21:11:55.536Z,102323.56
2022-12-03T21:17:07.820Z,102318.34
2022-12-03T21:22:06.233Z,102325.41
2022-12-03T21:27:03.066Z,102321.03
2022-12-03T21:31:59.930Z,102321.03
2022-12-03T21:36:56.430Z,102310.63
2022-12-03T21:42:34.719Z,102324.59
2022-12-03T21:47:14.226Z,102323.72
2022-12-03T21:52:12.306Z,102326.34
2022-12-03T21:57:08.965Z,102320.25
2022-12-03T22:02:05.816Z,102324.59
2022-12-03T22:07:03.415Z,102321.97
2022-12-03T22:12:01.325Z,102330.75
2022-12-03T22:16:57.856Z,102315.94
2022-12-03T22:21:55.446Z,102319.44
2022-12-03T22:26:53.595Z,102308.94
2022-12-03T22:31:50.271Z,102323.81
2022-12-03T22:36:47.049Z,102322.97
2022-12-03T22:41:43.717Z,102313.38
2022-12-03T22:46:40.367Z,102312.47
2022-12-03T22:51:38.201Z,102310.69
2022-12-03T22:56:36.013Z,102310.75
2022-12-03T23:01:38.169Z,102308.09
2022-12-03T23:06:36.106Z,102307.19
2022-12-03T23:11:33.237Z,102303.69
2022-12-03T23:16:30.658Z,102307.25
2022-12-03T23:21:30.650Z,102309.91
2022-12-03T23:26:27.968Z,102303.75
2022-12-03T23:31:26.212Z,102301.13
2022-12-03T23:36:24.872Z,102300.22
2022-12-03T23:41:23.322Z,102296.75
2022-12-03T23:46:22.198Z,102293.31
2022-12-03T23:51:24.108Z,102300.34
2022-12-03T23:56:23.909Z,102294.25
